Time;durP1;ratioP1;P1;durP2;ratioP2;P2;SDS_P1;SDS_P2;PMS_P1;PMS_P2;Temp;Humidity;BMP_temperature;BMP_pressure;BME280_temperature;BME280_humidity;BME280_pressure;Samples;Min_cycle;Max_cycle;Signal;HPM_P1;HPM_P2
2022/06/25 00:01:15;;;;;;;2.60;0.38;;;;;;;13.25;100.00;99735.75;6117958;23;20040;-57
2022/06/25 00:03:41;;;;;;;8.73;1.80;;;;;;;13.21;100.00;99739.91;6116789;23;20006;-48
2022/06/25 00:06:07;;;;;;;6.95;1.45;;;;;;;13.23;100.00;99743.97;6117471;23;20006;-48
2022/06/25 00:08:34;;;;;;;5.07;1.02;;;;;;;13.20;100.00;99747.09;6116519;23;20010;-53
2022/06/25 00:11:00;;;;;;;5.82;0.73;;;;;;;13.15;100.00;99752.28;6116765;23;20034;-48
2022/06/25 00:13:26;;;;;;;5.63;0.93;;;;;;;13.08;100.00;99749.69;6114667;23;20211;-56
2022/06/25 00:15:51;;;;;;;4.05;0.80;;;;;;;13.06;100.00;99759.78;6116230;23;20013;-55
2022/06/25 00:18:17;;;;;;;2.83;0.75;;;;;;;13.06;100.00;99750.94;6118581;23;20049;-48
2022/06/25 00:20:43;;;;;;;6.20;0.75;;;;;;;13.08;100.00;99755.00;6119384;23;20005;-54
2022/06/25 00:23:08;;;;;;;3.53;0.68;;;;;;;13.07;100.00;99748.06;6117959;23;20405;-56
2022/06/25 00:25:34;;;;;;;4.70;0.43;;;;;;;13.05;100.00;99759.97;6120589;23;20017;-52
2022/06/25 00:27:59;;;;;;;5.82;0.90;;;;;;;13.00;100.00;99752.66;6119670;23;20006;-55
2022/06/25 00:30:25;;;;;;;7.50;0.68;;;;;;;12.98;100.00;99761.91;6119421;23;20440;-56
2022/06/25 00:32:50;;;;;;;7.07;1.42;;;;;;;12.94;100.00;99752.78;6120033;23;20503;-54
2022/06/25 00:35:16;;;;;;;3.42;0.73;;;;;;;12.93;100.00;99759.91;6119038;23;20011;-52
2022/06/25 00:37:42;;;;;;;12.80;1.52;;;;;;;12.92;100.00;99765.47;6119226;23;20057;-52
2022/06/25 00:40:09;;;;;;;5.38;0.70;;;;;;;12.81;100.00;99767.84;6118633;23;20010;-56
2022/06/25 00:42:34;;;;;;;6.60;0.80;;;;;;;12.74;100.00;99763.63;6119166;23;20013;-55
2022/06/25 00:45:00;;;;;;;2.28;1.02;;;;;;;12.61;100.00;99775.25;6119744;23;20013;-57
2022/06/25 00:47:26;;;;;;;2.03;0.60;;;;;;;12.55;100.00;99770.81;6120618;23;20017;-56
2022/06/25 00:49:52;;;;;;;7.20;1.75;;;;;;;12.51;100.00;99769.63;6120532;23;20240;-57
2022/06/25 00:52:20;;;;;;;10.07;2.75;;;;;;;12.54;100.00;99771.84;6119856;23;20083;-57
2022/06/25 00:54:55;;;;;;;2.40;0.38;;;;;;;12.55;100.00;99771.63;6120072;23;20079;-53
2022/06/25 00:57:24;;;;;;;3.13;1.33;;;;;;;12.57;100.00;99777.53;6117745;23;20317;-53
2022/06/25 00:59:50;;;;;;;1.67;0.30;;;;;;;12.53;100.00;99788.84;6118925;23;20459;-58
2022/06/25 01:02:16;;;;;;;3.25;0.65;;;;;;;12.43;100.00;99782.16;6118618;23;20101;-51
2022/06/25 01:04:42;;;;;;;10.10;0.82;;;;;;;12.33;100.00;99776.53;6119089;23;20005;-53
2022/06/25 01:07:08;;;;;;;7.68;1.48;;;;;;;12.26;100.00;99790.91;6118634;23;20052;-55
2022/06/25 01:09:34;;;;;;;6.40;0.38;;;;;;;12.19;100.00;99802.44;6119557;23;20080;-53
2022/06/25 01:12:00;;;;;;;4.15;0.43;;;;;;;12.14;100.00;99801.47;6119129;23;20424;-56
2022/06/25 01:14:26;;;;;;;1.90;0.98;;;;;;;12.17;100.00;99807.16;6119582;23;20053;-54
2022/06/25 01:16:51;;;;;;;2.17;0.50;;;;;;;12.28;100.00;99813.59;6119589;23;20141;-46
2022/06/25 01:19:17;;;;;;;4.13;0.45;;;;;;;12.35;100.00;99809.03;6120400;23;20014;-55
2022/06/25 01:21:43;;;;;;;4.13;0.25;;;;;;;12.37;100.00;99804.31;6118776;23;20012;-52
2022/06/25 01:24:08;;;;;;;4.32;0.30;;;;;;;12.40;100.00;99808.38;6121025;23;20009;-54
2022/06/25 01:26:35;;;;;;;5.40;0.28;;;;;;;12.41;100.00;99818.78;6119008;23;20024;-51
2022/06/25 01:29:02;;;;;;;1.65;0.30;;;;;;;12.44;100.00;99818.38;6120415;23;20064;-52
2022/06/25 01:31:27;;;;;;;5.88;1.38;;;;;;;12.43;100.00;99827.34;6119658;23;20006;-50
2022/06/25 01:33:53;;;;;;;8.45;0.85;;;;;;;12.46;100.00;99828.78;6120638;23;20056;-54
2022/06/25 01:36:19;;;;;;;1.70;0.20;;;;;;;12.47;100.00;99826.91;6119508;23;20451;-53
2022/06/25 01:38:45;;;;;;;3.55;0.47;;;;;;;12.48;100.00;99826.72;6118717;23;20360;-47
2022/06/25 01:41:10;;;;;;;4.97;1.27;;;;;;;12.50;100.00;99831.81;6120305;23;20010;-54
2022/06/25 01:43:35;;;;;;;3.10;0.47;;;;;;;12.44;100.00;99821.03;6119445;23;20475;-49
2022/06/25 01:46:01;;;;;;;2.30;0.32;;;;;;;12.42;100.00;99825.75;6120302;23;20013;-54
2022/06/25 01:48:26;;;;;;;4.10;0.77;;;;;;;12.41;100.00;99828.63;6120184;23;20018;-51
2022/06/25 01:50:51;;;;;;;7.18;1.13;;;;;;;12.37;100.00;99825.59;6119939;23;20014;-54
2022/06/25 01:53:17;;;;;;;8.63;2.30;;;;;;;12.32;100.00;99833.41;6119531;23;20013;-52
2022/06/25 01:55:42;;;;;;;7.85;1.67;;;;;;;12.25;100.00;99831.84;6119441;23;20435;-54
2022/06/25 01:58:08;;;;;;;0.88;0.35;;;;;;;12.14;100.00;99841.31;6120565;23;20377;-51
2022/06/25 02:00:34;;;;;;;6.28;1.27;;;;;;;12.07;100.00;99841.38;6118712;23;20016;-54
2022/06/25 02:03:00;;;;;;;3.90;0.88;;;;;;;12.05;100.00;99846.06;6118639;23;20520;-53
2022/06/25 02:08:13;;;;;;;6.60;0.65;;;;;;;12.12;100.00;99848.69;6119439;23;20568;-56
2022/06/25 02:10:40;;;;;;;4.28;0.50;;;;;;;12.12;100.00;99852.16;6116298;23;20017;-52
2022/06/25 02:13:06;;;;;;;1.73;1.15;;;;;;;12.12;100.00;99846.84;6118411;23;20006;-54
2022/06/25 02:15:32;;;;;;;3.13;0.65;;;;;;;12.12;100.00;99846.03;6119527;23;20403;-54
2022/06/25 02:17:58;;;;;;;7.45;0.82;;;;;;;12.09;100.00;99849.13;6116232;23;20010;-56
2022/06/25 02:20:24;;;;;;;3.58;0.73;;;;;;;12.07;100.00;99853.84;6119924;23;20036;-54
2022/06/25 02:22:50;;;;;;;3.28;0.70;;;;;;;12.02;100.00;99845.72;6119706;23;20006;-58
2022/06/25 02:25:15;;;;;;;0.88;0.28;;;;;;;11.99;100.00;99846.94;6118973;23;20082;-55
2022/06/25 02:27:40;;;;;;;4.53;0.93;;;;;;;12.00;100.00;99849.41;6118590;23;20337;-57
2022/06/25 02:30:06;;;;;;;2.08;0.45;;;;;;;12.02;100.00;99851.03;6120316;23;20010;-55
2022/06/25 02:32:33;;;;;;;5.20;0.65;;;;;;;11.99;100.00;99842.44;6116061;23;20014;-55
2022/06/25 02:34:59;;;;;;;7.30;0.45;;;;;;;11.93;100.00;99848.63;6119454;23;20435;-57
2022/06/25 02:37:25;;;;;;;2.28;0.38;;;;;;;11.91;100.00;99861.31;6119166;23;20025;-53
2022/06/25 02:39:50;;;;;;;3.80;0.28;;;;;;;11.87;100.00;99854.78;6118667;23;20393;-51
2022/06/25 02:42:15;;;;;;;2.38;0.40;;;;;;;11.77;100.00;99851.75;6118262;23;20010;-55
2022/06/25 02:44:41;;;;;;;7.13;0.63;;;;;;;11.64;100.00;99849.19;6118795;23;20075;-55
2022/06/25 02:47:06;;;;;;;4.70;0.38;;;;;;;11.51;100.00;99852.72;6119270;23;20014;-50
2022/06/25 02:49:31;;;;;;;5.40;0.47;;;;;;;11.43;100.00;99860.94;6119657;23;20014;-55
2022/06/25 02:51:57;;;;;;;3.75;0.30;;;;;;;11.35;100.00;99862.00;6117478;23;20014;-53
2022/06/25 02:54:23;;;;;;;8.25;0.95;;;;;;;11.26;100.00;99864.09;6117732;23;20373;-53
2022/06/25 02:59:32;;;;;;;4.70;0.55;;;;;;;11.11;100.00;99860.88;6118708;23;20559;-52
2022/06/25 03:01:58;;;;;;;6.57;1.15;;;;;;;11.04;100.00;99862.72;6119411;23;20058;-52
2022/06/25 03:04:24;;;;;;;3.03;0.20;;;;;;;10.97;100.00;99873.38;6116702;23;20010;-50
2022/06/25 03:06:50;;;;;;;7.07;0.30;;;;;;;10.93;100.00;99879.28;6118792;23;20077;-55
2022/06/25 03:09:16;;;;;;;6.75;0.80;;;;;;;10.93;100.00;99880.09;6120173;23;20092;-57
2022/06/25 03:11:42;;;;;;;2.50;1.17;;;;;;;10.96;100.00;99884.19;6117177;23;20045;-51
2022/06/25 03:14:07;;;;;;;5.93;0.38;;;;;;;10.92;100.00;99889.09;6119874;23;20016;-54
2022/06/25 03:16:32;;;;;;;2.80;0.22;;;;;;;10.89;100.00;99884.19;6119481;23;20395;-55
2022/06/25 03:18:58;;;;;;;5.20;0.75;;;;;;;10.85;100.00;99893.59;6118834;23;20010;-56
2022/06/25 03:21:24;;;;;;;1.42;0.20;;;;;;;10.81;100.00;99895.81;6119126;23;20096;-51
2022/06/25 03:23:49;;;;;;;1.83;0.38;;;;;;;10.80;100.00;99902.16;6119341;23;20056;-56
2022/06/25 03:26:14;;;;;;;7.22;0.30;;;;;;;10.84;100.00;99910.50;6117685;23;20009;-56
2022/06/25 03:28:40;;;;;;;4.75;0.98;;;;;;;10.83;100.00;99907.03;6118358;23;20002;-52
2022/06/25 03:31:05;;;;;;;3.13;0.52;;;;;;;10.83;100.00;99906.22;6120255;23;20006;-54
2022/06/25 03:33:31;;;;;;;3.50;0.30;;;;;;;10.82;100.00;99920.53;6118472;23;20038;-51
2022/06/25 03:35:56;;;;;;;5.72;0.50;;;;;;;10.73;100.00;99917.25;6118086;23;20057;-51
2022/06/25 03:38:22;;;;;;;2.67;0.32;;;;;;;10.64;100.00;99919.31;6118310;23;20013;-51
2022/06/25 03:40:47;;;;;;;3.83;0.28;;;;;;;10.58;100.00;99919.31;6119388;23;20069;-52
2022/06/25 03:43:12;;;;;;;4.47;0.70;;;;;;;10.56;100.00;99922.19;6118701;23;20436;-53
2022/06/25 03:45:38;;;;;;;6.50;0.30;;;;;;;10.56;100.00;99916.88;6118983;23;20033;-55
2022/06/25 03:48:04;;;;;;;7.20;0.38;;;;;;;10.51;100.00;99924.63;6116751;23;20002;-51
2022/06/25 03:50:30;;;;;;;1.80;0.30;;;;;;;10.48;100.00;99919.72;6116353;23;20045;-56
2022/06/25 03:52:55;;;;;;;1.05;0.40;;;;;;;10.49;100.00;99916.06;6117113;23;20041;-56
2022/06/25 03:55:20;;;;;;;4.20;0.25;;;;;;;10.51;100.00;99924.63;6116670;23;20013;-54
2022/06/25 03:57:46;;;;;;;2.70;0.50;;;;;;;10.48;100.00;99933.78;6116010;23;20475;-50
2022/06/25 04:00:14;;;;;;;2.92;0.68;;;;;;;10.45;100.00;99925.41;6116662;23;20028;-57
2022/06/25 04:02:40;;;;;;;3.38;0.17;;;;;;;10.44;100.00;99923.81;6116540;23;20014;-55
2022/06/25 04:05:06;;;;;;;4.18;0.20;;;;;;;10.43;100.00;99927.47;6119203;23;20009;-54
2022/06/25 04:07:34;;;;;;;5.97;0.70;;;;;;;10.39;100.00;99931.53;6116657;23;20396;-52
2022/06/25 04:10:00;;;;;;;6.53;1.13;;;;;;;10.37;100.00;99925.63;6115858;23;20010;-53
2022/06/25 04:12:25;;;;;;;1.40;0.10;;;;;;;10.35;100.00;99935.59;6119157;23;20029;-48
2022/06/25 04:14:51;;;;;;;4.65;0.17;;;;;;;10.30;100.00;99930.94;6117554;23;20085;-47
2022/06/25 04:17:16;;;;;;;7.75;1.88;;;;;;;10.28;100.00;99924.22;6120416;23;20014;-46
2022/06/25 04:19:42;;;;;;;1.45;0.43;;;;;;;10.22;100.00;99933.72;6119030;23;20089;-49
2022/06/25 04:22:09;;;;;;;5.35;1.67;;;;;;;10.19;100.00;99937.59;6118966;23;20443;-47
2022/06/25 04:24:35;;;;;;;5.53;0.85;;;;;;;10.19;100.00;99931.47;6120805;23;20447;-47
2022/06/25 04:27:01;;;;;;;2.65;0.30;;;;;;;10.22;100.00;99937.22;6119890;23;20439;-50
2022/06/25 04:29:27;;;;;;;1.90;0.17;;;;;;;10.23;100.00;99932.72;6120396;23;20016;-47
2022/06/25 04:31:52;;;;;;;2.33;1.10;;;;;;;10.22;100.00;99937.22;6119519;23;20487;-47
2022/06/25 04:34:18;;;;;;;3.42;0.82;;;;;;;10.26;100.00;99942.91;6118210;23;20013;-48
2022/06/25 04:36:43;;;;;;;6.07;0.30;;;;;;;10.22;100.00;99942.50;6119228;23;20455;-46
2022/06/25 04:39:08;;;;;;;1.77;0.13;;;;;;;10.21;100.00;99940.84;6118202;23;20085;-47
2022/06/25 04:41:34;;;;;;;6.72;0.30;;;;;;;10.24;100.00;99952.88;6117963;23;20006;-47
2022/06/25 04:44:01;;;;;;;4.82;0.73;;;;;;;10.20;100.00;99957.78;6119847;23;20285;-47
2022/06/25 04:46:27;;;;;;;4.32;0.32;;;;;;;10.15;100.00;99957.56;6119751;23;20389;-46
2022/06/25 04:48:52;;;;;;;5.78;1.60;;;;;;;10.20;100.00;99960.44;6120073;23;20042;-48
2022/06/25 04:51:18;;;;;;;5.55;0.20;;;;;;;10.21;100.00;99961.25;6119913;23;20105;-50
2022/06/25 04:53:56;;;;;;;6.35;0.50;;;;;;;10.25;100.00;99965.13;6117822;23;20308;-47
2022/06/25 04:56:30;;;;;;;2.50;0.63;;;;;;;10.31;100.00;99963.53;6119992;23;20309;-52
2022/06/25 04:58:57;;;;;;;3.22;0.38;;;;;;;10.37;100.00;99974.13;6119497;23;20009;-48
2022/06/25 05:01:22;;;;;;;6.43;0.40;;;;;;;10.36;100.00;99974.34;6117852;23;20092;-47
2022/06/25 05:03:48;;;;;;;4.60;0.38;;;;;;;10.37;100.00;99974.13;6120215;23;20006;-48
2022/06/25 05:06:14;;;;;;;5.05;0.57;;;;;;;10.51;100.00;99977.63;6121059;23;20037;-49
2022/06/25 05:08:40;;;;;;;2.17;0.40;;;;;;;10.63;100.00;99983.13;6118279;23;20028;-50
2022/06/25 05:11:06;;;;;;;2.47;0.10;;;;;;;10.74;100.00;99984.34;6120030;23;20006;-49
2022/06/25 05:13:31;;;;;;;2.97;1.42;;;;;;;10.86;100.00;99985.38;6119987;23;20021;-47
2022/06/25 05:15:57;;;;;;;8.27;1.48;;;;;;;11.04;100.00;99987.41;6120644;23;20068;-49
2022/06/25 05:18:23;;;;;;;5.32;0.90;;;;;;;11.19;100.00;99992.50;6118260;23;20017;-48
2022/06/25 05:20:49;;;;;;;5.80;0.52;;;;;;;11.27;100.00;99993.09;6119397;23;20006;-49
2022/06/25 05:23:14;;;;;;;3.88;0.28;;;;;;;11.41;100.00;99988.59;6118321;23;20010;-46
2022/06/25 05:25:41;;;;;;;3.25;0.45;;;;;;;11.56;100.00;99985.66;6120038;23;20045;-50
2022/06/25 05:28:07;;;;;;;4.28;0.80;;;;;;;11.67;100.00;99979.72;6119812;23;20080;-49
2022/06/25 05:30:32;;;;;;;4.30;0.60;;;;;;;11.76;100.00;99986.41;6118955;23;20010;-54
2022/06/25 05:32:58;;;;;;;3.35;1.02;;;;;;;11.81;100.00;99991.09;6120479;23;20006;-56
2022/06/25 05:35:24;;;;;;;2.28;0.75;;;;;;;11.83;100.00;99982.91;6119042;23;20060;-55
2022/06/25 05:37:50;;;;;;;8.35;1.00;;;;;;;11.80;100.00;99981.50;6119795;23;20421;-52
2022/06/25 05:40:15;;;;;;;4.03;0.63;;;;;;;11.69;100.00;99979.47;6120234;23;20005;-49
2022/06/25 05:42:41;;;;;;;1.55;0.40;;;;;;;11.62;100.00;99989.34;6120615;23;20023;-49
2022/06/25 05:45:08;;;;;;;7.45;1.13;;;;;;;11.49;100.00;99996.31;6119504;23;20071;-51
2022/06/25 05:47:33;;;;;;;2.15;0.43;;;;;;;11.40;100.00;99996.75;6120267;23;20017;-46
2022/06/25 05:49:59;;;;;;;2.38;0.50;;;;;;;11.34;100.00;99998.38;6119364;23;20033;-52
2022/06/25 05:52:24;;;;;;;6.65;0.57;;;;;;;11.37;100.00;100005.13;6119856;23;20014;-49
2022/06/25 05:54:50;;;;;;;12.57;1.05;;;;;;;11.42;100.00;100006.13;6119581;23;20089;-49
2022/06/25 05:57:15;;;;;;;12.00;1.55;;;;;;;11.44;100.00;100006.75;6118797;23;20012;-48
2022/06/25 05:59:41;;;;;;;2.25;0.30;;;;;;;11.51;100.00;100004.88;6120294;23;20032;-48
2022/06/25 06:02:06;;;;;;;3.28;0.85;;;;;;;11.57;100.00;100008.53;6119975;23;20416;-45
2022/06/25 06:04:32;;;;;;;4.03;0.55;;;;;;;11.65;100.00;100004.84;6118572;23;20002;-50
2022/06/25 06:06:59;;;;;;;6.55;0.75;;;;;;;11.69;100.00;100000.72;6119320;23;20010;-52
2022/06/25 06:09:27;;;;;;;3.63;0.30;;;;;;;11.72;100.00;99995.00;6117747;23;20037;-55
2022/06/25 06:11:53;;;;;;;5.00;0.57;;;;;;;11.75;100.00;100000.72;6119685;23;20080;-50
2022/06/25 06:14:19;;;;;;;6.30;1.42;;;;;;;11.89;100.00;100004.16;6118349;23;20061;-53
2022/06/25 06:16:44;;;;;;;8.70;0.77;;;;;;;12.04;100.00;100001.22;6119532;23;20009;-48
2022/06/25 06:19:10;;;;;;;8.70;1.08;;;;;;;12.21;100.00;99998.91;6119432;23;20064;-53
2022/06/25 06:21:35;;;;;;;3.00;0.22;;;;;;;12.27;100.00;99998.03;6118989;23;20063;-50
2022/06/25 06:24:00;;;;;;;4.15;0.82;;;;;;;12.28;100.00;99999.66;6116771;23;20378;-52
2022/06/25 06:26:26;;;;;;;4.72;0.57;;;;;;;12.31;100.00;100003.75;6117734;23;20056;-53
2022/06/25 06:28:51;;;;;;;5.22;0.60;;;;;;;12.45;100.00;100013.28;6117946;23;20013;-47
2022/06/25 06:31:17;;;;;;;5.97;1.20;;;;;;;12.55;100.00;100010.97;6119217;23;20328;-53
2022/06/25 06:33:42;;;;;;;9.27;1.92;;;;;;;12.68;100.00;100022.53;6118558;23;20435;-49
2022/06/25 06:36:07;;;;;;;7.55;1.27;;;;;;;12.71;100.00;100016.78;6113656;23;20036;-54
2022/06/25 06:38:33;;;;;;;9.93;1.90;;;;;;;12.72;100.00;100021.88;6117687;23;20203;-53
2022/06/25 06:40:58;;;;;;;10.30;1.08;;;;;;;12.75;100.00;100017.97;6117754;23;20013;-49
2022/06/25 06:43:24;;;;;;;3.67;1.50;;;;;;;12.82;100.00;100016.06;6118116;23;20038;-54
2022/06/25 06:45:50;;;;;;;21.05;3.03;;;;;;;12.81;100.00;100009.13;6116579;23;20085;-46
2022/06/25 06:48:15;;;;;;;9.70;2.13;;;;;;;12.90;100.00;100009.66;6116582;23;20089;-43
2022/06/25 06:50:40;;;;;;;27.10;2.50;;;;;;;13.07;100.00;100013.41;6116844;23;20006;-49
2022/06/25 06:53:06;;;;;;;4.68;1.17;;;;;;;13.21;100.00;100011.44;6118857;23;20009;-50
2022/06/25 06:55:31;;;;;;;10.90;1.10;;;;;;;13.33;100.00;100022.22;6116182;23;20110;-55
2022/06/25 06:57:56;;;;;;;7.60;3.08;;;;;;;13.43;100.00;100022.53;6116123;23;20010;-49
2022/06/25 07:00:22;;;;;;;11.32;1.92;;;;;;;13.59;100.00;100013.13;6117703;23;20057;-56
2022/06/25 07:02:47;;;;;;;11.98;2.50;;;;;;;13.65;100.00;99998.91;6115997;23;20416;-57
2022/06/25 07:05:13;;;;;;;10.25;1.85;;;;;;;13.66;100.00;99995.22;6115468;23;20005;-52
2022/06/25 07:07:38;;;;;;;8.82;2.15;;;;;;;13.87;100.00;99994.75;6117785;23;20006;-55
2022/06/25 07:10:04;;;;;;;9.70;2.38;;;;;;;14.07;100.00;99997.16;6117947;23;20049;-48
2022/06/25 07:12:30;;;;;;;12.80;2.45;;;;;;;14.26;100.00;99997.13;6117838;23;20384;-48
2022/06/25 07:14:55;;;;;;;10.38;1.85;;;;;;;14.31;100.00;99997.25;6117563;23;20044;-53
2022/06/25 07:17:21;;;;;;;8.48;1.08;;;;;;;14.22;100.00;99993.25;6118348;23;20002;-51
2022/06/25 07:19:46;;;;;;;12.70;3.70;;;;;;;13.90;100.00;99999.63;6111093;23;20010;-53
2022/06/25 07:22:11;;;;;;;4.20;1.58;;;;;;;13.65;100.00;99997.06;6109603;23;20507;-51
2022/06/25 07:24:37;;;;;;;11.88;1.35;;;;;;;13.52;100.00;100011.34;6109731;23;20045;-56
2022/06/25 07:27:02;;;;;;;4.70;0.80;;;;;;;13.50;100.00;100009.94;6111323;23;20013;-55
2022/06/25 07:29:28;;;;;;;9.32;1.00;;;;;;;13.51;100.00;100008.91;6112388;23;20014;-48
2022/06/25 07:31:53;;;;;;;11.93;2.05;;;;;;;13.51;100.00;100008.91;6112574;23;20023;-56
2022/06/25 07:34:19;;;;;;;10.88;1.45;;;;;;;13.50;100.00;100008.09;6113141;23;20031;-53
2022/06/25 07:36:44;;;;;;;7.60;1.95;;;;;;;13.46;100.00;100006.09;6111317;23;20002;-56
2022/06/25 07:39:09;;;;;;;7.40;1.67;;;;;;;13.53;100.00;100006.84;6111876;23;20406;-56
2022/06/25 07:41:35;;;;;;;7.00;0.85;;;;;;;13.77;100.00;99993.66;6113946;23;20010;-50
2022/06/25 07:44:00;;;;;;;6.85;0.75;;;;;;;14.14;100.00;99997.88;6113817;23;20040;-51
2022/06/25 07:46:26;;;;;;;11.40;1.25;;;;;;;14.33;100.00;99989.84;6113879;23;20018;-53
2022/06/25 07:48:52;;;;;;;7.00;2.78;;;;;;;14.44;100.00;99986.38;6114026;23;20022;-49
2022/06/25 07:54:01;;;;;;;5.13;0.82;;;;;;;14.40;100.00;99998.53;6112726;23;20050;-51
2022/06/25 07:56:27;;;;;;;11.38;1.08;;;;;;;14.25;100.00;100009.66;6114343;23;20014;-53
2022/06/25 07:58:52;;;;;;;11.10;2.22;;;;;;;14.24;100.00;100010.66;6114639;23;20093;-57
2022/06/25 08:01:18;;;;;;;5.82;2.25;;;;;;;14.23;100.00;100000.25;6113038;23;20014;-50
2022/06/25 08:03:43;;;;;;;5.80;1.38;;;;;;;14.09;100.00;100005.72;6113776;23;20384;-52
2022/06/25 08:06:10;;;;;;;6.00;1.10;;;;;;;13.95;100.00;100014.94;6110970;23;20009;-57
2022/06/25 08:08:35;;;;;;;8.35;1.75;;;;;;;13.86;100.00;100014.47;6114298;23;20020;-55
2022/06/25 08:11:01;;;;;;;4.30;1.70;;;;;;;13.85;100.00;100012.00;6114531;23;20089;-57
2022/06/25 08:13:26;;;;;;;4.63;1.08;;;;;;;13.82;100.00;100021.25;6114555;23;20041;-60
2022/06/25 08:15:52;;;;;;;6.72;1.33;;;;;;;13.74;100.00;100014.38;6115832;23;20065;-58
2022/06/25 08:18:19;;;;;;;12.13;3.13;;;;;;;13.66;100.00;100011.22;6113230;23;20010;-53
2022/06/25 08:20:45;;;;;;;5.00;1.48;;;;;;;13.63;100.00;100016.97;6112878;23;20012;-51
2022/06/25 08:23:10;;;;;;;3.65;0.80;;;;;;;13.59;100.00;100024.59;6111806;23;20062;-53
2022/06/25 08:25:36;;;;;;;9.55;2.08;;;;;;;13.63;100.00;100025.78;6110646;23;20404;-59
2022/06/25 08:28:01;;;;;;;8.30;1.63;;;;;;;13.75;100.00;100025.84;6111458;23;20119;-45
2022/06/25 08:30:27;;;;;;;9.13;1.85;;;;;;;14.08;100.00;100029.97;6112305;23;20002;-46
2022/06/25 08:32:53;;;;;;;8.05;1.15;;;;;;;14.40;100.00;100020.72;6110159;23;20023;-58
2022/06/25 08:35:18;;;;;;;7.82;1.40;;;;;;;14.44;100.00;100031.72;6112479;23;20312;-54
2022/06/25 08:37:46;;;;;;;6.40;1.50;;;;;;;14.37;100.00;100031.81;6113263;23;20017;-56
2022/06/25 08:40:13;;;;;;;9.65;1.88;;;;;;;14.30;100.00;100032.94;6108824;23;20545;-53
2022/06/25 08:42:39;;;;;;;12.13;2.38;;;;;;;14.22;100.00;100027.94;6110622;23;20173;-53
2022/06/25 08:45:05;;;;;;;8.82;1.10;;;;;;;14.31;100.00;100034.59;6111765;23;20017;-53
2022/06/25 08:47:31;;;;;;;6.13;1.38;;;;;;;14.82;100.00;100025.25;6113071;23;20014;-59
2022/06/25 08:49:58;;;;;;;11.43;1.73;;;;;;;15.33;100.00;100030.94;6114532;23;20677;-54
2022/06/25 08:52:27;;;;;;;5.28;1.75;;;;;;;15.54;100.00;100018.84;6115470;23;20498;-52
2022/06/25 08:54:55;;;;;;;5.80;1.08;;;;;;;15.79;100.00;100013.25;6115152;23;20013;-53
2022/06/25 08:57:21;;;;;;;5.90;1.08;;;;;;;16.12;100.00;100012.56;6114221;23;20009;-47
2022/06/25 08:59:47;;;;;;;10.32;1.08;;;;;;;16.39;100.00;100009.28;6111101;23;20089;-54
2022/06/25 09:02:12;;;;;;;4.43;0.93;;;;;;;16.81;100.00;100003.63;6107636;23;20052;-59
2022/06/25 09:04:37;;;;;;;6.78;0.57;;;;;;;17.36;100.00;100000.13;6111630;23;20009;-58
2022/06/25 09:07:14;;;;;;;10.30;1.20;;;;;;;17.75;100.00;99995.53;6112240;23;20100;-48
2022/06/25 09:09:45;;;;;;;5.47;1.15;;;;;;;17.22;100.00;99999.69;6115116;23;20053;-57
2022/06/25 09:12:13;;;;;;;5.55;1.45;;;;;;;16.99;100.00;99989.97;6108046;23;20342;-55
2022/06/25 09:14:38;;;;;;;7.78;1.10;;;;;;;16.76;100.00;100002.44;6112126;23;20010;-58
2022/06/25 09:17:12;;;;;;;7.60;1.17;;;;;;;16.47;100.00;99995.50;6111399;23;20009;-52
2022/06/25 09:19:42;;;;;;;6.40;1.42;;;;;;;16.47;100.00;99995.50;6114178;23;20006;-53
2022/06/25 09:22:13;;;;;;;2.47;0.82;;;;;;;16.74;100.00;99998.38;6113223;23;20431;-52
2022/06/25 09:24:58;;;;;;;4.85;1.17;;;;;;;16.88;100.00;99982.81;6113661;23;20041;-56
2022/06/25 09:27:33;;;;;;;7.38;0.98;;;;;;;17.10;100.00;99983.72;6111603;23;20124;-51
2022/06/25 09:30:06;;;;;;;9.88;1.13;;;;;;;17.55;100.00;99992.59;6110934;23;20020;-56
2022/06/25 09:32:48;;;;;;;2.88;1.10;;;;;;;18.03;100.00;99981.13;6114175;23;20364;-51
2022/06/25 09:35:35;;;;;;;4.97;0.82;;;;;;;18.59;100.00;99977.38;6106799;23;20021;-62
2022/06/25 09:38:07;;;;;;;3.47;1.63;;;;;;;18.89;100.00;99969.56;6110571;23;20010;-49
2022/06/25 09:40:34;;;;;;;3.28;0.73;;;;;;;19.35;100.00;99972.50;6112213;23;20009;-56
2022/06/25 09:43:11;;;;;;;5.68;0.77;;;;;;;19.56;100.00;99970.72;6110107;23;20463;-48
2022/06/25 09:45:37;;;;;;;6.05;1.65;;;;;;;19.37;100.00;99983.03;6112755;23;20009;-54
2022/06/25 09:48:02;;;;;;;3.17;1.20;;;;;;;19.32;100.00;99977.63;6110424;23;20014;-48
2022/06/25 09:50:28;;;;;;;5.28;1.25;;;;;;;19.46;100.00;99975.25;6107553;23;20076;-54
2022/06/25 09:52:59;;;;;;;2.10;0.38;;;;;;;19.26;100.00;99979.47;6109348;23;20316;-49
2022/06/25 09:55:34;;;;;;;4.30;1.27;;;;;;;19.25;100.00;99971.66;6110270;23;20451;-48
2022/06/25 09:58:00;;;;;;;6.60;0.68;;;;;;;19.30;100.00;99985.13;6113519;23;20006;-44
2022/06/25 10:00:26;;;;;;;7.13;1.20;;;;;;;19.43;100.00;99971.22;6110774;23;20013;-52
2022/06/25 10:02:55;;;;;;;5.13;0.82;;;;;;;19.20;100.00;99985.06;6111872;23;20010;-46
2022/06/25 10:05:44;;;;;;;6.57;1.20;;;;;;;19.04;100.00;99966.16;6111380;23;20350;-51
2022/06/25 10:08:13;;;;;;;6.25;0.90;;;;;;;19.01;100.00;99972.06;6110487;23;20332;-52
2022/06/25 10:10:42;;;;;;;4.72;1.17;;;;;;;18.83;100.00;99975.16;6111617;23;20017;-48
2022/06/25 10:13:08;;;;;;;6.78;1.42;;;;;;;18.34;100.00;99972.59;6106884;23;20084;-44
2022/06/25 10:15:34;;;;;;;5.22;0.85;;;;;;;18.43;100.00;99979.09;6101254;23;20336;-53
2022/06/25 10:18:03;;;;;;;2.72;0.47;;;;;;;18.64;100.00;99966.66;6103440;23;20435;-48
2022/06/25 10:20:30;;;;;;;3.30;0.98;;;;;;;19.03;100.00;99963.75;6109515;23;20013;-46
2022/06/25 10:22:57;;;;;;;2.70;1.20;;;;;;;19.39;100.00;99967.44;6110277;23;20069;-49
2022/06/25 10:25:25;;;;;;;1.75;0.55;;;;;;;19.28;100.00;99958.50;6112642;23;20014;-43
2022/06/25 10:28:02;;;;;;;5.38;0.75;;;;;;;19.17;99.42;99959.53;6113525;23;20471;-56
2022/06/25 10:30:48;;;;;;;4.35;0.70;;;;;;;19.18;92.51;99961.16;6113120;23;20025;-51
2022/06/25 10:33:15;;;;;;;2.15;0.35;;;;;;;19.26;93.16;99954.44;6113271;23;20017;-51
2022/06/25 10:35:42;;;;;;;2.03;0.30;;;;;;;19.32;89.29;99961.50;6112710;23;20053;-47
2022/06/25 10:38:12;;;;;;;3.75;0.75;;;;;;;19.44;89.15;99958.56;6112890;23;20017;-44
2022/06/25 10:43:54;;;;;;;3.70;1.10;;;;;;;19.97;80.46;99951.25;6114272;23;20029;-50
2022/06/25 10:46:26;;;;;;;4.43;1.33;;;;;;;20.00;82.02;99951.53;6113482;23;20124;-45
2022/06/25 10:49:07;;;;;;;4.93;0.90;;;;;;;20.08;84.46;99957.47;6113874;23;20010;-47
2022/06/25 10:51:32;;;;;;;;;;;;;;;20.21;81.38;99952.38;6114245;23;20017;-47
2022/06/25 10:54:00;;;;;;;1.10;0.50;;;;;;;20.24;80.08;99957.22;6114509;23;19917;-51
2022/06/25 10:56:30;;;;;;;1.80;0.75;;;;;;;20.22;79.08;99962.06;6114063;23;20010;-43
2022/06/25 10:58:56;;;;;;;2.15;0.45;;;;;;;20.22;79.52;99954.00;6113105;23;20014;-46
2022/06/25 11:01:27;;;;;;;3.83;0.57;;;;;;;20.12;76.07;99962.06;6109085;23;20045;-49
2022/06/25 11:03:58;;;;;;;1.75;0.60;;;;;;;20.26;75.30;99944.31;6101134;23;20046;-50
2022/06/25 11:06:38;;;;;;;1.85;0.77;;;;;;;20.48;76.27;99962.88;6103482;23;20489;-49
2022/06/25 11:09:15;;;;;;;4.32;1.20;;;;;;;20.47;71.63;99965.84;6112593;23;20036;-48
2022/06/25 11:11:45;;;;;;;5.03;0.75;;;;;;;20.34;75.36;99967.22;6109797;23;20038;-49
2022/06/25 11:14:19;;;;;;;2.33;0.95;;;;;;;19.97;74.89;99956.63;6110554;23;20454;-52
2022/06/25 11:16:45;;;;;;;7.43;0.70;;;;;;;19.84;77.91;99979.47;6106823;23;20036;-43
2022/06/25 11:19:11;;;;;;;6.82;0.80;;;;;;;19.46;78.91;99967.19;6112515;23;20424;-44
2022/06/25 11:21:38;;;;;;;5.15;1.35;;;;;;;19.23;83.09;99979.16;6113491;23;20014;-48
2022/06/25 11:24:15;;;;;;;4.13;0.40;;;;;;;19.04;85.56;99976.91;6108874;23;20097;-49
2022/06/25 11:29:46;;;;;;;7.15;0.70;;;;;;;19.10;84.65;99972.38;6111183;23;20068;-44
2022/06/25 11:32:13;;;;;;;9.38;1.80;;;;;;;18.98;86.03;99963.72;6109610;23;20036;-49
2022/06/25 11:34:40;;;;;;;3.90;0.80;;;;;;;19.33;87.08;99963.09;6109525;23;20010;-46
2022/06/25 11:37:08;;;;;;;3.08;0.73;;;;;;;19.97;84.73;99968.19;6107478;23;20016;-48